createdAt,value
2022-09-05T00:02:03.545Z,1.70
2022-09-05T00:04:42.643Z,1.48
2022-09-05T00:07:57.865Z,1.13
2022-09-05T00:10:18.765Z,1.38
2022-09-05T00:12:48.443Z,1.58
2022-09-05T00:15:29.135Z,1.55
2022-09-05T00:22:21.693Z,1.73
2022-09-05T00:24:19.421Z,1.20
2022-09-05T00:24:45.687Z,1.33
2022-09-05T00:27:13.709Z,1.20
2022-09-05T00:30:40.636Z,1.25
2022-09-05T00:32:40.167Z,1.10
2022-09-05T00:35:14.932Z,1.30
2022-09-05T00:37:45.640Z,1.10
2022-09-05T00:40:39.878Z,1.23
2022-09-05T00:43:22.445Z,1.52
2022-09-05T00:46:00.698Z,1.50
2022-09-05T00:48:49.850Z,1.17
2022-09-05T00:51:28.575Z,1.25
2022-09-05T00:54:32.649Z,1.20
2022-09-05T00:57:36.554Z,1.30
2022-09-05T01:00:18.130Z,1.50
2022-09-05T01:02:51.610Z,1.40
2022-09-05T01:05:31.953Z,1.30
2022-09-05T01:08:20.530Z,1.30
2022-09-05T01:10:54.800Z,1.35
2022-09-05T01:13:46.916Z,1.08
2022-09-05T01:17:08.334Z,1.20
2022-09-05T01:20:18.885Z,1.50
2022-09-05T01:23:23.586Z,1.60
2022-09-05T01:26:10.184Z,1.60
2022-09-05T01:29:15.344Z,3.10
2022-09-05T01:32:05.536Z,2.97
2022-09-05T01:34:55.860Z,2.90
2022-09-05T01:37:34.305Z,3.38
2022-09-05T01:40:17.508Z,3.40
2022-09-05T01:43:28.079Z,2.90
2022-09-05T01:46:27.032Z,2.30
2022-09-05T01:48:55.017Z,2.40
2022-09-05T01:51:34.502Z,2.10
2022-09-05T01:54:24.246Z,1.90
2022-09-05T01:57:23.833Z,2.00
2022-09-05T02:00:24.160Z,2.00
2022-09-05T02:02:51.373Z,1.88
2022-09-05T02:05:48.921Z,2.50
2022-09-05T02:08:40.290Z,2.10
2022-09-05T02:11:11.634Z,1.98
2022-09-05T02:13:54.172Z,2.20
2022-09-05T02:16:44.433Z,2.33
2022-09-05T02:22:02.660Z,2.03
2022-09-05T02:24:32.673Z,2.20
2022-09-05T02:29:36.702Z,2.03
2022-09-05T02:32:13.982Z,2.00
2022-09-05T02:34:55.165Z,2.05
2022-09-05T02:38:30.161Z,2.17
2022-09-05T02:45:00.804Z,1.88
2022-09-05T02:45:23.977Z,1.90
2022-09-05T02:46:28.603Z,1.90
2022-09-05T02:53:13.849Z,2.15
2022-09-05T02:57:30.218Z,2.13
2022-09-05T02:57:36.694Z,2.25
2022-09-05T02:58:04.494Z,2.45
2022-09-05T03:00:44.329Z,2.20
2022-09-05T03:03:39.284Z,2.20
2022-09-05T03:06:28.867Z,1.67
2022-09-05T03:09:30.055Z,2.13
2022-09-05T03:12:28.533Z,2.47
2022-09-05T03:15:18.571Z,2.28
2022-09-05T03:18:20.568Z,2.00
2022-09-05T03:21:47.865Z,2.20
2022-09-05T03:24:27.184Z,1.98
2022-09-05T03:27:12.561Z,2.00
2022-09-05T03:29:50.016Z,2.10
2022-09-05T03:33:03.849Z,2.20
2022-09-05T03:35:33.777Z,2.17
2022-09-05T03:38:28.840Z,2.35
2022-09-05T03:41:05.690Z,2.28
2022-09-05T03:43:51.141Z,2.10
2022-09-05T03:46:53.565Z,2.25
2022-09-05T03:51:24.367Z,2.20
2022-09-05T03:57:05.529Z,1.83
2022-09-05T03:57:28.162Z,2.25
2022-09-05T03:58:55.830Z,2.40
2022-09-05T04:04:37.939Z,2.35
2022-09-05T04:08:15.463Z,2.35
2022-09-05T04:08:19.348Z,2.25
2022-09-05T04:10:42.663Z,2.00
2022-09-05T04:13:24.948Z,2.38
2022-09-05T04:16:03.622Z,2.50
2022-09-05T04:18:38.669Z,2.72
2022-09-05T04:21:20.216Z,2.60
2022-09-05T04:24:05.788Z,2.70
2022-09-05T04:27:06.216Z,2.38
2022-09-05T04:29:39.516Z,2.55
2022-09-05T04:32:18.756Z,2.40
2022-09-05T04:37:48.739Z,2.83
2022-09-05T04:40:46.927Z,2.70
2022-09-05T04:43:32.599Z,2.78
2022-09-05T04:46:19.182Z,2.80
2022-09-05T04:48:51.368Z,2.90
2022-09-05T04:52:14.820Z,3.05
2022-09-05T04:55:01.678Z,2.80
2022-09-05T04:57:48.099Z,3.00
2022-09-05T05:06:01.511Z,3.08
2022-09-05T05:06:13.319Z,2.60
2022-09-05T05:06:31.526Z,2.92
2022-09-05T05:08:46.281Z,2.72
2022-09-05T05:16:59.369Z,3.20
2022-09-05T05:18:09.262Z,2.60
2022-09-05T05:18:10.384Z,2.75
2022-09-05T05:20:56.984Z,3.28
2022-09-05T05:23:32.505Z,2.55
2022-09-05T05:26:02.804Z,2.60
2022-09-05T05:28:57.678Z,2.72
2022-09-05T05:31:29.582Z,3.22
2022-09-05T05:34:02.331Z,3.40
2022-09-05T05:36:35.057Z,3.40
2022-09-05T05:39:27.485Z,5.00
2022-09-05T05:41:56.257Z,9.60
2022-09-05T05:44:27.421Z,5.90
2022-09-05T05:47:31.467Z,12.88
2022-09-05T05:50:02.709Z,6.97
2022-09-05T05:52:58.044Z,5.50
2022-09-05T05:55:52.819Z,4.78
2022-09-05T05:58:52.534Z,4.65
2022-09-05T06:01:41.725Z,4.68
2022-09-05T06:04:27.850Z,3.77
2022-09-05T06:07:09.965Z,4.10
2022-09-05T06:14:50.671Z,4.07
2022-09-05T06:14:52.494Z,3.67
2022-09-05T06:17:03.226Z,4.18
2022-09-05T06:20:15.016Z,4.13
2022-09-05T06:22:52.263Z,3.83
2022-09-05T06:25:44.636Z,4.25
2022-09-05T06:28:18.361Z,3.72
2022-09-05T06:31:35.237Z,6.25
2022-09-05T06:34:32.967Z,5.88
2022-09-05T06:37:16.738Z,5.80
2022-09-05T06:40:00.286Z,5.00
2022-09-05T06:42:44.159Z,4.35
2022-09-05T06:45:36.103Z,3.97
2022-09-05T06:48:11.053Z,3.78
2022-09-05T06:51:08.277Z,3.70
2022-09-05T06:54:03.556Z,3.58
2022-09-05T06:56:39.835Z,4.38
2022-09-05T06:59:49.143Z,3.80
2022-09-05T07:02:46.371Z,3.40
2022-09-05T07:08:35.900Z,3.58
2022-09-05T07:11:16.173Z,3.17
2022-09-05T07:16:52.036Z,5.40
2022-09-05T07:19:28.621Z,4.30
2022-09-05T07:22:51.717Z,4.63
2022-09-05T07:25:22.711Z,5.88
2022-09-05T07:28:26.369Z,5.60
2022-09-05T07:31:37.690Z,4.50
2022-09-05T07:34:21.146Z,3.03
2022-09-05T07:37:15.015Z,3.80
2022-09-05T07:39:50.011Z,3.53
2022-09-05T07:42:22.993Z,3.97
2022-09-05T07:44:56.493Z,3.20
2022-09-05T07:47:33.447Z,2.88
2022-09-05T07:52:24.936Z,3.35
2022-09-05T07:57:01.153Z,2.80
2022-09-05T07:57:01.328Z,2.40
2022-09-05T07:58:41.435Z,2.30
2022-09-05T08:01:12.669Z,4.93
2022-09-05T08:03:42.330Z,4.68
2022-09-05T08:07:24.260Z,5.25
2022-09-05T08:10:02.272Z,4.18
2022-09-05T08:12:11.354Z,3.83
2022-09-05T08:14:46.379Z,6.32
2022-09-05T08:17:18.935Z,5.20
2022-09-05T08:20:23.540Z,2.60
2022-09-05T08:23:04.556Z,2.25
2022-09-05T08:25:36.250Z,2.22
2022-09-05T08:28:38.876Z,2.33
2022-09-05T08:31:14.747Z,2.28
2022-09-05T08:33:43.466Z,2.13
2022-09-05T08:36:13.850Z,2.10
2022-09-05T08:38:43.314Z,2.45
2022-09-05T08:41:49.198Z,2.42
2022-09-05T08:46:40.242Z,3.13
2022-09-05T08:47:25.631Z,3.28
2022-09-05T08:50:29.967Z,2.80
2022-09-05T08:53:38.233Z,2.88
2022-09-05T08:56:17.062Z,2.72
2022-09-05T08:59:32.242Z,2.70
2022-09-05T09:02:47.820Z,2.38
2022-09-05T09:06:11.931Z,2.40
2022-09-05T09:09:08.743Z,3.30
2022-09-05T09:11:47.667Z,2.85
2022-09-05T09:14:33.850Z,2.78
2022-09-05T09:17:28.768Z,2.25
2022-09-05T09:20:31.398Z,2.13
2022-09-05T09:23:08.979Z,2.13
2022-09-05T09:26:11.320Z,3.08
2022-09-05T09:28:51.404Z,2.40
2022-09-05T09:31:23.259Z,2.20
2022-09-05T09:34:03.832Z,2.30
2022-09-05T09:36:49.477Z,1.83
2022-09-05T09:39:38.820Z,2.28
2022-09-05T09:45:22.714Z,1.67
2022-09-05T09:48:24.128Z,4.25
2022-09-05T09:51:29.232Z,4.10
2022-09-05T09:54:27.332Z,19.10
2022-09-05T09:57:19.216Z,9.73
2022-09-05T10:00:07.634Z,3.80
2022-09-05T10:04:48.065Z,2.75
2022-09-05T10:10:44.653Z,1.42
2022-09-05T10:11:18.882Z,1.70
2022-09-05T10:12:14.269Z,1.40
2022-09-05T10:15:03.771Z,1.38
2022-09-05T10:18:26.507Z,1.60
2022-09-05T10:21:16.970Z,1.85
2022-09-05T10:24:25.947Z,1.80
2022-09-05T10:27:02.240Z,1.45
2022-09-05T10:30:09.135Z,1.48
2022-09-05T10:35:15.252Z,1.80
2022-09-05T10:35:37.617Z,1.60
2022-09-05T10:38:14.907Z,1.67
2022-09-05T10:41:20.038Z,1.60
2022-09-05T10:44:02.415Z,1.80
2022-09-05T10:46:50.642Z,2.03
2022-09-05T10:49:24.526Z,1.77
2022-09-05T10:52:18.646Z,5.00
2022-09-05T10:55:02.596Z,5.30
2022-09-05T10:58:22.107Z,3.00
2022-09-05T11:02:20.930Z,3.90
2022-09-05T11:04:49.596Z,2.60
2022-09-05T11:07:39.955Z,2.55
2022-09-05T11:10:14.173Z,2.00
2022-09-05T11:12:57.723Z,1.98
2022-09-05T11:16:06.774Z,2.40
2022-09-05T11:18:57.183Z,2.60
2022-09-05T11:21:38.139Z,6.40
2022-09-05T11:24:12.115Z,3.65
2022-09-05T11:27:23.435Z,2.28
2022-09-05T11:29:49.025Z,2.38
2022-09-05T11:39:20.610Z,3.63
2022-09-05T11:39:59.253Z,1.80
2022-09-05T11:40:10.360Z,1.75
2022-09-05T11:41:42.799Z,1.60
2022-09-05T11:44:56.781Z,1.50
2022-09-05T11:47:58.006Z,1.40
2022-09-05T11:50:49.850Z,17.17
2022-09-05T11:53:35.310Z,5.95
2022-09-05T11:56:23.524Z,2.47
2022-09-05T11:59:13.758Z,1.30
2022-09-05T12:01:50.693Z,1.63
2022-09-05T12:04:37.727Z,2.22
2022-09-05T12:07:15.551Z,1.80
2022-09-05T12:10:45.704Z,1.10
2022-09-05T12:13:29.365Z,1.27
2022-09-05T12:16:07.567Z,1.13
2022-09-05T12:18:43.107Z,1.30
2022-09-05T12:21:25.078Z,1.30
2022-09-05T12:25:15.182Z,1.05
2022-09-05T12:27:42.378Z,0.90
2022-09-05T12:30:04.784Z,1.00
2022-09-05T12:36:04.904Z,1.00
2022-09-05T12:36:13.213Z,1.00
2022-09-05T12:40:38.529Z,1.23
2022-09-05T12:41:46.221Z,1.45
2022-09-05T12:44:42.501Z,1.48
2022-09-05T12:47:19.574Z,1.70
2022-09-05T12:50:14.371Z,1.40
2022-09-05T12:52:44.940Z,1.35
2022-09-05T12:55:22.511Z,1.70
2022-09-05T13:02:11.288Z,2.08
2022-09-05T13:03:04.487Z,1.67
2022-09-05T13:03:53.549Z,1.75
2022-09-05T13:06:30.937Z,1.85
2022-09-05T13:09:30.821Z,2.30
2022-09-05T13:14:47.398Z,2.20
2022-09-05T13:15:23.178Z,1.90
2022-09-05T13:17:59.310Z,1.90
2022-09-05T13:20:36.613Z,2.17
2022-09-05T13:23:23.094Z,1.95
2022-09-05T13:25:58.629Z,1.83
2022-09-05T13:28:35.317Z,2.05
2022-09-05T13:37:53.838Z,3.58
2022-09-05T13:37:56.534Z,2.00
2022-09-05T13:37:59.372Z,4.90
2022-09-05T13:40:00.205Z,2.63
2022-09-05T13:42:31.413Z,3.17
2022-09-05T13:45:00.947Z,3.15
2022-09-05T13:47:29.733Z,2.10
2022-09-05T13:50:23.170Z,2.20
2022-09-05T13:52:53.484Z,2.50
2022-09-05T13:55:42.215Z,2.40
2022-09-05T13:58:24.961Z,1.90
2022-09-05T14:01:30.241Z,1.90
2022-09-05T14:10:12.584Z,1.92
2022-09-05T14:12:49.253Z,2.08
2022-09-05T14:15:37.445Z,2.30
2022-09-05T14:18:24.072Z,2.00
2022-09-05T14:21:17.329Z,1.60
2022-09-05T14:23:57.457Z,1.92
2022-09-05T14:26:34.567Z,1.80
2022-09-05T14:29:14.501Z,2.00
2022-09-05T14:37:40.126Z,1.90
2022-09-05T14:37:41.425Z,1.70
2022-09-05T14:38:48.972Z,2.03
2022-09-05T14:41:36.941Z,1.90
2022-09-05T14:44:27.578Z,2.10
2022-09-05T14:47:06.374Z,2.10
2022-09-05T14:49:41.695Z,2.20
2022-09-05T14:52:26.428Z,1.88
2022-09-05T15:02:48.691Z,1.98
2022-09-05T15:02:51.033Z,2.00
2022-09-05T15:06:32.935Z,2.08
2022-09-05T15:11:25.827Z,1.92
2022-09-05T15:12:23.055Z,2.10
2022-09-05T15:14:38.423Z,2.10
2022-09-05T15:17:05.956Z,2.00
2022-09-05T15:20:06.237Z,1.98
2022-09-05T15:22:42.102Z,1.92
2022-09-05T15:25:22.686Z,1.90
2022-09-05T15:27:50.664Z,1.95
2022-09-05T15:30:34.978Z,2.25
2022-09-05T15:33:31.455Z,2.22
2022-09-05T15:35:59.923Z,2.40
2022-09-05T15:38:54.378Z,2.13
2022-09-05T15:41:24.625Z,2.00
2022-09-05T15:43:59.689Z,2.30
2022-09-05T15:47:03.515Z,2.17
2022-09-05T15:49:40.878Z,2.20
2022-09-05T15:52:29.445Z,2.30
2022-09-05T15:55:10.666Z,2.05
2022-09-05T15:57:38.680Z,2.00
2022-09-05T16:00:09.859Z,2.38
2022-09-05T16:02:40.092Z,2.03
2022-09-05T16:10:35.756Z,2.25
2022-09-05T16:10:35.845Z,2.10
2022-09-05T16:14:39.360Z,1.85
2022-09-05T16:23:16.179Z,2.38
2022-09-05T16:23:32.898Z,2.10
2022-09-05T16:23:46.149Z,2.50
2022-09-05T16:26:25.280Z,2.15
2022-09-05T16:29:11.540Z,2.40
2022-09-05T16:31:45.797Z,2.55
2022-09-05T16:34:49.811Z,2.75
2022-09-05T16:37:34.981Z,2.63
2022-09-05T16:40:32.177Z,1.80
2022-09-05T16:43:15.670Z,2.40
2022-09-05T16:46:22.931Z,2.65
2022-09-05T16:48:55.017Z,2.30
2022-09-05T16:51:35.608Z,2.58
2022-09-05T16:54:12.383Z,2.50
2022-09-05T16:56:43.602Z,2.50
2022-09-05T16:59:23.120Z,2.63
2022-09-05T17:02:07.202Z,2.95
2022-09-05T17:05:03.092Z,2.80
2022-09-05T17:07:42.091Z,2.70
2022-09-05T17:10:12.116Z,3.13
2022-09-05T17:12:40.542Z,2.40
2022-09-05T17:15:17.110Z,3.13
2022-09-05T17:18:22.316Z,2.40
2022-09-05T17:20:36.883Z,2.60
2022-09-05T17:29:19.571Z,3.13
2022-09-05T17:29:26.020Z,3.30
2022-09-05T17:29:41.139Z,3.50
2022-09-05T17:32:02.230Z,2.53
2022-09-05T17:34:47.392Z,2.75
2022-09-05T17:37:43.491Z,2.95
2022-09-05T17:40:44.754Z,3.40
2022-09-05T17:43:28.682Z,3.35
2022-09-05T17:46:12.595Z,4.45
2022-09-05T17:48:46.290Z,4.97
2022-09-05T17:51:26.290Z,2.75
2022-09-05T17:53:59.759Z,2.70
2022-09-05T17:56:31.918Z,2.15
2022-09-05T17:59:23.601Z,2.42
2022-09-05T18:02:03.391Z,2.45
2022-09-05T18:04:39.935Z,2.42
2022-09-05T18:07:25.578Z,2.75
2022-09-05T18:10:15.377Z,2.80
2022-09-05T18:13:12.723Z,3.20
2022-09-05T18:15:43.963Z,3.00
2022-09-05T18:19:28.118Z,2.50
2022-09-05T18:21:22.512Z,3.47
2022-09-05T18:23:58.538Z,3.03
2022-09-05T18:26:27.948Z,2.92
2022-09-05T18:28:59.209Z,2.97
2022-09-05T18:31:40.691Z,3.60
2022-09-05T18:34:15.592Z,3.60
2022-09-05T18:36:48.661Z,3.35
2022-09-05T18:39:29.370Z,3.65
2022-09-05T18:42:33.872Z,4.95
2022-09-05T18:45:14.777Z,3.25
2022-09-05T18:47:50.999Z,3.10
2022-09-05T18:50:32.389Z,3.60
2022-09-05T18:53:09.431Z,3.50
2022-09-05T18:56:20.547Z,3.80
2022-09-05T18:58:53.657Z,3.08
2022-09-05T19:01:30.620Z,3.38
2022-09-05T19:04:00.972Z,3.67
2022-09-05T19:06:37.264Z,3.40
2022-09-05T19:09:08.575Z,3.55
2022-09-05T19:11:53.771Z,4.15
2022-09-05T19:14:36.285Z,4.13
2022-09-05T19:17:20.666Z,3.80
2022-09-05T19:20:32.028Z,4.20
2022-09-05T19:23:10.647Z,3.80
2022-09-05T19:25:42.890Z,4.90
2022-09-05T19:35:53.037Z,4.63
2022-09-05T19:37:11.018Z,5.35
2022-09-05T19:37:12.358Z,6.18
2022-09-05T19:37:38.267Z,4.85
2022-09-05T19:44:39.004Z,4.50
2022-09-05T19:47:25.972Z,12.07
2022-09-05T19:47:35.381Z,5.30
2022-09-05T19:48:27.010Z,4.90
2022-09-05T19:50:56.236Z,5.22
2022-09-05T19:53:24.155Z,4.90
2022-09-05T19:55:52.402Z,5.43
2022-09-05T19:58:21.558Z,5.00
2022-09-05T20:01:02.166Z,4.50
2022-09-05T20:03:38.710Z,4.07
2022-09-05T20:06:29.298Z,4.53
2022-09-05T20:09:21.889Z,4.60
2022-09-05T20:12:00.657Z,6.88
2022-09-05T20:14:34.402Z,5.60
2022-09-05T20:17:20.893Z,4.57
2022-09-05T20:19:48.335Z,4.47
2022-09-05T20:22:48.857Z,4.22
2022-09-05T20:25:40.707Z,4.28
2022-09-05T20:28:17.270Z,4.32
2022-09-05T20:30:48.246Z,4.57
2022-09-05T20:33:23.243Z,5.40
2022-09-05T20:37:51.629Z,4.90
2022-09-05T20:43:16.873Z,5.30
2022-09-05T20:43:32.087Z,6.40
2022-09-05T20:44:48.342Z,5.78
2022-09-05T20:51:42.689Z,5.75
2022-09-05T20:54:06.711Z,6.95
2022-09-05T20:54:27.791Z,6.53
2022-09-05T20:56:02.449Z,7.72
2022-09-05T20:58:31.892Z,6.75
2022-09-05T21:01:20.222Z,6.82
2022-09-05T21:06:36.755Z,5.97
2022-09-05T21:09:11.357Z,5.57
2022-09-05T21:11:40.151Z,6.15
2022-09-05T21:14:07.744Z,5.63
2022-09-05T21:16:43.120Z,5.30
2022-09-05T21:19:25.335Z,5.35
2022-09-05T21:22:28.514Z,5.88
2022-09-05T21:25:44.241Z,5.93
2022-09-05T21:28:36.450Z,5.82
2022-09-05T21:31:08.836Z,6.10
2022-09-05T21:33:45.977Z,6.38
2022-09-05T21:36:17.006Z,5.40
2022-09-05T21:38:44.489Z,5.57
2022-09-05T21:41:15.853Z,5.97
2022-09-05T21:47:37.648Z,5.97
2022-09-05T21:47:47.094Z,6.72
2022-09-05T21:49:22.709Z,6.40
2022-09-05T21:51:50.471Z,6.10
2022-09-05T21:58:50.931Z,6.72
2022-09-05T21:59:26.443Z,6.20
2022-09-05T22:00:13.125Z,5.28
2022-09-05T22:02:49.057Z,5.63
2022-09-05T22:05:17.111Z,5.38
2022-09-05T22:07:48.577Z,5.63
2022-09-05T22:10:15.987Z,5.50
2022-09-05T22:12:43.744Z,5.43
2022-09-05T22:15:28.173Z,5.70
2022-09-05T22:18:16.404Z,5.18
2022-09-05T22:20:53.467Z,5.53
2022-09-05T22:23:36.038Z,5.47
2022-09-05T22:26:06.623Z,5.60
2022-09-05T22:28:34.624Z,5.13
2022-09-05T22:31:07.471Z,5.57
2022-09-05T22:33:36.138Z,4.95
2022-09-05T22:36:04.409Z,5.13
2022-09-05T22:38:32.666Z,4.68
2022-09-05T22:41:00.132Z,4.38
2022-09-05T22:43:27.510Z,4.38
2022-09-05T22:45:55.965Z,4.43
2022-09-05T22:48:23.943Z,4.10
2022-09-05T22:50:51.737Z,4.32
2022-09-05T22:53:19.016Z,4.28
2022-09-05T22:55:46.261Z,4.38
2022-09-05T22:58:14.743Z,4.10
2022-09-05T23:00:44.424Z,4.10
2022-09-05T23:03:12.193Z,3.63
2022-09-05T23:05:39.449Z,4.13
2022-09-05T23:08:06.932Z,3.60
2022-09-05T23:10:35.393Z,3.63
2022-09-05T23:13:04.749Z,3.08
2022-09-05T23:15:32.092Z,3.27
2022-09-05T23:18:00.596Z,2.70
2022-09-05T23:20:30.014Z,2.80
2022-09-05T23:22:57.979Z,2.30
2022-09-05T23:25:25.257Z,3.20
2022-09-05T23:27:52.686Z,2.80
2022-09-05T23:30:19.957Z,2.60
2022-09-05T23:32:49.034Z,3.13
2022-09-05T23:35:17.038Z,2.80
2022-09-05T23:37:45.462Z,2.95
2022-09-05T23:40:14.474Z,2.90
2022-09-05T23:42:42.173Z,2.92
2022-09-05T23:45:09.874Z,2.70
2022-09-05T23:47:37.592Z,2.78
2022-09-05T23:50:05.638Z,3.25
2022-09-05T23:52:38.717Z,2.97
2022-09-05T23:55:07.031Z,3.20
2022-09-05T23:57:34.280Z,3.03
